Curacavi, Chile
Current Conditions -  °F | °C
As of 3:02 PM on Tuesday 27 Jan 2015 (Local Time) from SCEL Reporting Station
Clear Clear  
Wind Chill: 88°   Ceiling: Unl
Heat Index: 88°   Visibility: 6mi
Dew Point: 50°   Wind: 22mph
Humidity: 27%   Direction: 220°SW
Pressure: 29.88"   Gusts: NA
Location:  33.2°S, 71.12°W
Report Text: SCEL 271902Z 22019KT CAVOK 31/10 Q1012 NOSIG
Loading
Personal Weather Stations






























Interactive Weather Map New forecast layout! Learn more

10-Day Weather Forecast

Advertisements
Track Severe Weather on mobile